• Join FlightAware (Why Join?)
  • Login
  • US Flag 
02:21PM EDT


 

Airport Tracker/Info


-or-


 

Live Flight TrackerFlight Track Log ✈ N934DL ✈ 18-May-2013 ✈ KATL - KCMH

Flight Track Log - Related Links

Times and Time Zones

All times are in EDT time to prevent confusion due to time zone crossing. See the N934DL flight status page for this flight to view local times or setup timezone preferences in your user account.

Time Position Orientation Groundspeed Altitude Reporting Facility
EDT Latitude Longitude Course Direction KTS MPH feet Rate Location/Type
10:40AM 33.6500 -84.4500 North 157 181 2,200  Level Atlanta TRACON
10:41AM 33.6667 -84.5000 292° West 221 254 3,600 2,100 Climbing Atlanta TRACON
10:42AM 33.7000 -84.5833 296° West 275 316 6,300 2,160 Climbing Atlanta TRACON
10:43AM 33.8279 -84.1667 North  Level FlightAware Approximate
10:44AM 33.9211 -84.2544 320° Northwest  Level FlightAware Approximate
10:44AM 33.8433 -84.5289 18° North 277 319 10,300  Level Atlanta Center
10:45AM 34.0369 -84.2667 North  Level FlightAware Approximate
10:45AM 33.9106 -84.4317 50° Northeast 325 374 11,800  Level Atlanta Center
10:46AM 34.1564 -84.2667 North  Level FlightAware Approximate
10:46AM 33.9836 -84.3794 31° Northeast 367 422 14,200  Level Atlanta Center
10:47AM 34.0922 -84.3472 14° North 361 415 16,900 2,340 Climbing Atlanta Center
10:49AM 34.3306 -84.2728 14° North 405 466 21,300 1,980 Climbing Atlanta Center
10:50AM 34.4472 -84.2453 11° North 411 473 23,000 1,740 Climbing Atlanta Center
10:51AM 34.5664 -84.2178 11° North 423 487 24,800 1,680 Climbing Atlanta Center
10:52AM 34.6833 -84.1903 11° North 433 498 26,400 1,560 Climbing Atlanta Center
10:53AM 34.8044 -84.1628 11° North 433 498 28,000 1,500 Climbing Atlanta Center
10:54AM 34.9275 -84.1325 11° North 433 498 29,400 1,200 Climbing Atlanta Center
10:55AM 35.0528 -84.0997 12° North 439 505 30,500 1,200 Climbing Atlanta Center
10:56AM 35.1758 -84.0692 11° North 450 518 31,800 1,080 Climbing Atlanta Center
10:57AM 35.3011 -84.0414 10° North 450 518 32,700 900 Climbing Atlanta Center
10:58AM 35.4242 -84.0108 11° North 450 518 33,700 600 Climbing Atlanta Center
10:59AM 35.5450 -83.9825 11° North 450 518 34,000 420 Climbing Atlanta Center
11:00AM 35.6661 -83.9519 12° North 450 518 34,600 480 Climbing Atlanta Center
11:01AM 35.7892 -83.9236 11° North 450 518 35,000 180 Climbing Atlanta Center
11:02AM 35.9081 -83.8900 13° North 444 511 35,000  Level Atlanta Center
11:03AM 36.0206 -83.8231 26° Northeast 439 505 35,000  Level Atlanta Center
11:04AM 36.1308 -83.7533 27° Northeast 439 505 35,000  Level Atlanta Center
11:05AM 36.2433 -83.6836 27° Northeast 439 505 35,000  Level Atlanta Center
11:07AM 36.4794 -83.5261 28° Northeast 448 516 35,000  Level Indianapolis Center
11:08AM 36.5928 -83.4550 27° Northeast 455 524 35,000  Level Indianapolis Center
11:10AM 36.7033 -83.3831 28° Northeast 447 514 35,000  Level Indianapolis Center
11:11AM 36.8153 -83.3131 27° Northeast 446 513 35,000 -600 Level Indianapolis Center
11:12AM 36.9469 -83.2289 27° Northeast 450 518 33,800 -1,200 Descending Indianapolis Center
11:13AM 37.0611 -83.1550 27° Northeast 455 524 32,600 -1,260 Descending Indianapolis Center
11:14AM 37.1767 -83.0803 27° Northeast 459 528 31,300 -840 Descending Indianapolis Center
11:15AM 37.2939 -83.0050 27° Northeast 466 536 31,000 -180 Descending Indianapolis Center
11:16AM 37.4094 -82.9286 28° Northeast 466 536 31,000  Level Indianapolis Center
11:17AM 37.5239 -82.8517 28° Northeast 466 536 31,000  Level Indianapolis Center
11:18AM 37.6383 -82.7775 27° Northeast 460 529 31,000  Level Indianapolis Center
11:19AM 37.7519 -82.7008 28° Northeast 461 531 31,000  Level Indianapolis Center
11:20AM 37.8631 -82.6244 28° Northeast 455 524 31,000  Level Indianapolis Center
11:21AM 37.9775 -82.5492 27° Northeast 460 529 31,000  Level Indianapolis Center
11:22AM 38.1081 -82.4611 28° Northeast 456 525 31,000  Level Indianapolis Center
11:23AM 38.2133 -82.3925 27° Northeast 457 526 31,000  Level Indianapolis Center
11:24AM 38.3272 -82.3150 28° Northeast 462 532 31,000  Level Indianapolis Center
11:25AM 38.4394 -82.2392 28° Northeast 454 522 31,000 -540 Level Indianapolis Center
11:26AM 38.5531 -82.1617 28° Northeast 459 528 30,000 -1,320 Descending Indianapolis Center
11:27AM 38.6672 -82.0839 28° Northeast 459 528 28,400 -1,680 Descending Indianapolis Center
11:28AM 38.7928 -82.0364 16° North 478 550 26,600 -1,680 Descending Indianapolis Center
11:29AM 38.9167 -82.0856 343° North 462 532 25,000 -2,040 Descending Indianapolis Center
11:30AM 39.0592 -82.1428 343° North 446 513 22,500 -1,980 Descending Indianapolis Center
11:31AM 39.1686 -82.1642 351° North 403 464 21,000 -1,740 Descending Indianapolis Center
11:32AM 39.2764 -82.1678 359° North 388 447 19,000 -1,920 Descending Indianapolis Center
11:33AM 39.3797 -82.1736 358° North 374 430 17,100 -1,920 Descending Indianapolis Center
11:34AM 39.4608 -82.2272 333° Northwest 361 415 15,100 -2,100 Descending Indianapolis Center
11:35AM 39.5472 -82.3236 319° Northwest 349 402 12,800 -2,220 Descending Indianapolis Center
11:36AM 39.5953 -82.3853 315° West 342 394 11,400 -1,680 Descending Indianapolis Center
11:36AM 39.6178 -82.4075 323° Northwest 342 394 11,100 -900 Descending Indianapolis Center
11:37AM 39.6867 -82.4878 318° Northwest 333 383 10,200 -840 Descending Indianapolis Center
11:38AM 39.7500 -82.5619 318° Northwest 303 349 9,500 -1,200 Descending Indianapolis Center
11:39AM 39.7900 -82.6119 316° Northwest 284 327 8,200 -1,800 Descending Indianapolis Center
11:39AM 39.8094 -82.6331 320° Northwest 290 334 7,700 -1,740 Descending Indianapolis Center
11:40AM 39.8558 -82.6953 314° West 287 330 6,300 -1,560 Descending Indianapolis Center
11:40AM 39.8614 -82.7094 297° West 285 328 6,100 -300 Descending Indianapolis Center
11:41AM 39.8808 -82.7903 287° West 278 320 6,000 -120 Descending Indianapolis Center
11:41AM 39.8850 -82.8072 288° West 282 325 6,000  Level Indianapolis Center
11:42AM 39.9036 -82.8853 287° West 279 321 6,000 -120 Level Indianapolis Center
11:42AM 39.9083 -82.9053 287° West 281 323 5,900 -1,380 Descending Indianapolis Center
11:43AM 39.9158 -82.9844 277° West 273 314 4,600 -1,500 Descending Indianapolis Center
11:43AM 39.9169 -83.0036 274° West 275 316 4,400 -660 Descending Indianapolis Center
11:44AM 39.9289 -83.0703 283° West 257 296 4,000 -420 Descending Indianapolis Center
11:44AM 39.9403 -83.0839 318° Northwest 255 293 4,000 -480 Level Indianapolis Center
11:45AM 39.9861 -83.0906 354° North 186 214 3,500 -840 Descending Indianapolis Center
11:45AM 40.0039 -83.0928 355° North 208 239 3,200 -900 Descending Indianapolis Center